sensor_id;sensor_type;location;lat;lon;timestamp;temperature;humidity
11091;DHT22;5599;52.210;21.046;2023-06-26T00:00:21;19.50;99.90
11091;DHT22;5599;52.210;21.046;2023-06-26T00:02:51;19.50;99.90
11091;DHT22;5599;52.210;21.046;2023-06-26T00:05:20;19.50;99.90
11091;DHT22;5599;52.210;21.046;2023-06-26T00:07:50;19.50;99.90
11091;DHT22;5599;52.210;21.046;2023-06-26T00:10:19;19.50;99.90
11091;DHT22;5599;52.210;21.046;2023-06-26T00:12:48;19.50;99.90
11091;DHT22;5599;52.210;21.046;2023-06-26T00:15:17;19.50;99.90
11091;DHT22;5599;52.210;21.046;2023-06-26T00:17:46;19.50;99.90
11091;DHT22;5599;52.210;21.046;2023-06-26T00:20:17;19.50;1.00
11091;DHT22;5599;52.210;21.046;2023-06-26T00:22:46;19.40;1.00
11091;DHT22;5599;52.210;21.046;2023-06-26T00:25:18;19.40;99.90
11091;DHT22;5599;52.210;21.046;2023-06-26T00:27:47;19.30;99.90
11091;DHT22;5599;52.210;21.046;2023-06-26T00:30:16;19.30;1.00
11091;DHT22;5599;52.210;21.046;2023-06-26T00:32:45;19.30;99.90
11091;DHT22;5599;52.210;21.046;2023-06-26T00:35:15;19.30;1.00
11091;DHT22;5599;52.210;21.046;2023-06-26T00:37:46;19.30;1.00
11091;DHT22;5599;52.210;21.046;2023-06-26T00:40:15;19.20;1.00
11091;DHT22;5599;52.210;21.046;2023-06-26T00:42:45;19.30;99.90
11091;DHT22;5599;52.210;21.046;2023-06-26T00:45:14;19.20;88.60
11091;DHT22;5599;52.210;21.046;2023-06-26T00:47:56;19.20;1.00
11091;DHT22;5599;52.210;21.046;2023-06-26T00:50:25;19.20;1.00
11091;DHT22;5599;52.210;21.046;2023-06-26T00:52:56;19.20;99.90
11091;DHT22;5599;52.210;21.046;2023-06-26T00:55:29;19.20;99.90
11091;DHT22;5599;52.210;21.046;2023-06-26T00:57:58;19.10;1.00
11091;DHT22;5599;52.210;21.046;2023-06-26T01:00:28;19.10;1.00
11091;DHT22;5599;52.210;21.046;2023-06-26T01:02:58;19.10;99.90
11091;DHT22;5599;52.210;21.046;2023-06-26T01:05:28;18.90;99.90
11091;DHT22;5599;52.210;21.046;2023-06-26T01:07:59;18.90;1.00
11091;DHT22;5599;52.210;21.046;2023-06-26T01:10:29;18.90;1.00
11091;DHT22;5599;52.210;21.046;2023-06-26T01:13:00;18.90;1.00
11091;DHT22;5599;52.210;21.046;2023-06-26T01:15:29;18.90;1.00
11091;DHT22;5599;52.210;21.046;2023-06-26T01:17:58;18.90;89.90
11091;DHT22;5599;52.210;21.046;2023-06-26T01:20:31;18.90;99.90
11091;DHT22;5599;52.210;21.046;2023-06-26T01:23:09;18.90;1.00
11091;DHT22;5599;52.210;21.046;2023-06-26T01:25:50;18.80;99.90
11091;DHT22;5599;52.210;21.046;2023-06-26T01:28:25;18.80;83.60
11091;DHT22;5599;52.210;21.046;2023-06-26T01:30:56;18.70;38.60
11091;DHT22;5599;52.210;21.046;2023-06-26T01:33:25;18.60;99.90
11091;DHT22;5599;52.210;21.046;2023-06-26T01:35:55;18.50;99.90
11091;DHT22;5599;52.210;21.046;2023-06-26T01:38:24;18.50;1.00
11091;DHT22;5599;52.210;21.046;2023-06-26T01:40:57;18.50;1.00
11091;DHT22;5599;52.210;21.046;2023-06-26T01:43:31;18.40;1.00
11091;DHT22;5599;52.210;21.046;2023-06-26T01:46:11;18.50;1.00
11091;DHT22;5599;52.210;21.046;2023-06-26T01:48:49;18.40;1.00
11091;DHT22;5599;52.210;21.046;2023-06-26T01:51:22;18.50;1.00
11091;DHT22;5599;52.210;21.046;2023-06-26T01:53:57;18.50;1.00
11091;DHT22;5599;52.210;21.046;2023-06-26T01:56:28;18.40;99.90
11091;DHT22;5599;52.210;21.046;2023-06-26T01:59:00;18.30;1.00
11091;DHT22;5599;52.210;21.046;2023-06-26T02:01:33;18.30;1.00
11091;DHT22;5599;52.210;21.046;2023-06-26T02:04:02;18.30;1.00
11091;DHT22;5599;52.210;21.046;2023-06-26T02:06:32;18.10;1.00
11091;DHT22;5599;52.210;21.046;2023-06-26T02:09:01;18.10;99.90
11091;DHT22;5599;52.210;21.046;2023-06-26T02:11:31;18.00;99.90
11091;DHT22;5599;52.210;21.046;2023-06-26T02:14:02;17.90;99.90
11091;DHT22;5599;52.210;21.046;2023-06-26T02:16:31;18.00;99.90
11091;DHT22;5599;52.210;21.046;2023-06-26T02:19:01;18.00;99.90
11091;DHT22;5599;52.210;21.046;2023-06-26T02:21:30;18.00;99.90
11091;DHT22;5599;52.210;21.046;2023-06-26T02:23:59;18.10;99.90
11091;DHT22;5599;52.210;21.046;2023-06-26T02:26:28;18.10;99.90
11091;DHT22;5599;52.210;21.046;2023-06-26T02:28:57;18.20;99.90
11091;DHT22;5599;52.210;21.046;2023-06-26T02:31:28;18.20;58.00
11091;DHT22;5599;52.210;21.046;2023-06-26T02:33:57;18.20;99.90
11091;DHT22;5599;52.210;21.046;2023-06-26T02:36:26;18.20;99.90
11091;DHT22;5599;52.210;21.046;2023-06-26T02:38:56;18.20;99.90
11091;DHT22;5599;52.210;21.046;2023-06-26T02:41:25;18.20;99.90
11091;DHT22;5599;52.210;21.046;2023-06-26T02:43:54;18.20;99.90
11091;DHT22;5599;52.210;21.046;2023-06-26T02:46:26;18.20;99.90
11091;DHT22;5599;52.210;21.046;2023-06-26T02:48:57;18.30;99.90
11091;DHT22;5599;52.210;21.046;2023-06-26T02:51:27;18.40;99.90
11091;DHT22;5599;52.210;21.046;2023-06-26T02:56:27;18.40;1.00
11091;DHT22;5599;52.210;21.046;2023-06-26T02:58:58;18.50;1.00
11091;DHT22;5599;52.210;21.046;2023-06-26T03:01:28;18.50;99.90
11091;DHT22;5599;52.210;21.046;2023-06-26T03:03:59;18.60;99.90
11091;DHT22;5599;52.210;21.046;2023-06-26T03:06:30;18.60;99.90
11091;DHT22;5599;52.210;21.046;2023-06-26T03:08:59;18.70;99.90
11091;DHT22;5599;52.210;21.046;2023-06-26T03:11:28;18.80;1.00
11091;DHT22;5599;52.210;21.046;2023-06-26T03:13:58;18.90;99.90
11091;DHT22;5599;52.210;21.046;2023-06-26T03:16:27;18.50;99.90
11091;DHT22;5599;52.210;21.046;2023-06-26T03:18:56;18.50;1.00
11091;DHT22;5599;52.210;21.046;2023-06-26T03:21:28;18.60;99.90
11091;DHT22;5599;52.210;21.046;2023-06-26T03:23:58;18.70;99.90
11091;DHT22;5599;52.210;21.046;2023-06-26T03:26:27;18.80;9.70
11091;DHT22;5599;52.210;21.046;2023-06-26T03:28:59;18.80;99.90
11091;DHT22;5599;52.210;21.046;2023-06-26T03:31:29;18.90;1.00
11091;DHT22;5599;52.210;21.046;2023-06-26T03:33:58;19.00;1.00
11091;DHT22;5599;52.210;21.046;2023-06-26T03:36:29;19.10;1.00
11091;DHT22;5599;52.210;21.046;2023-06-26T03:38:59;19.10;99.90
11091;DHT22;5599;52.210;21.046;2023-06-26T03:41:30;19.30;1.00
11091;DHT22;5599;52.210;21.046;2023-06-26T03:43:59;19.30;99.90
11091;DHT22;5599;52.210;21.046;2023-06-26T03:46:36;19.70;1.00
11091;DHT22;5599;52.210;21.046;2023-06-26T03:49:05;21.30;90.60
11091;DHT22;5599;52.210;21.046;2023-06-26T03:51:39;23.30;99.90
11091;DHT22;5599;52.210;21.046;2023-06-26T03:54:08;25.40;1.00
11091;DHT22;5599;52.210;21.046;2023-06-26T03:59:07;28.60;1.00
11091;DHT22;5599;52.210;21.046;2023-06-26T04:01:36;29.80;1.00
11091;DHT22;5599;52.210;21.046;2023-06-26T04:04:06;30.90;1.00
11091;DHT22;5599;52.210;21.046;2023-06-26T04:06:35;32.00;99.90
11091;DHT22;5599;52.210;21.046;2023-06-26T04:09:06;32.90;99.90
11091;DHT22;5599;52.210;21.046;2023-06-26T04:11:35;33.80;99.90
11091;DHT22;5599;52.210;21.046;2023-06-26T04:14:04;34.50;99.90
11091;DHT22;5599;52.210;21.046;2023-06-26T04:16:33;35.20;41.90
11091;DHT22;5599;52.210;21.046;2023-06-26T04:19:02;35.70;1.00
11091;DHT22;5599;52.210;21.046;2023-06-26T04:21:32;36.20;1.00
11091;DHT22;5599;52.210;21.046;2023-06-26T04:24:01;36.90;1.00
11091;DHT22;5599;52.210;21.046;2023-06-26T04:26:32;37.30;99.90
11091;DHT22;5599;52.210;21.046;2023-06-26T04:29:01;37.70;99.90
11091;DHT22;5599;52.210;21.046;2023-06-26T04:31:31;38.30;1.00
11091;DHT22;5599;52.210;21.046;2023-06-26T04:34:00;38.70;45.90
11091;DHT22;5599;52.210;21.046;2023-06-26T04:36:29;39.30;42.50
11091;DHT22;5599;52.210;21.046;2023-06-26T04:38:59;39.70;99.90
11091;DHT22;5599;52.210;21.046;2023-06-26T04:41:28;40.10;99.90
11091;DHT22;5599;52.210;21.046;2023-06-26T04:43:59;40.10;99.90
11091;DHT22;5599;52.210;21.046;2023-06-26T04:46:28;40.40;85.50
11091;DHT22;5599;52.210;21.046;2023-06-26T04:48:57;40.30;99.90
11091;DHT22;5599;52.210;21.046;2023-06-26T04:51:26;40.70;99.70
11091;DHT22;5599;52.210;21.046;2023-06-26T04:53:56;40.70;1.00
11091;DHT22;5599;52.210;21.046;2023-06-26T04:56:25;41.10;99.90
11091;DHT22;5599;52.210;21.046;2023-06-26T04:58:54;41.60;99.90
11091;DHT22;5599;52.210;21.046;2023-06-26T05:01:25;42.00;1.00
11091;DHT22;5599;52.210;21.046;2023-06-26T05:03:57;42.60;99.90
11091;DHT22;5599;52.210;21.046;2023-06-26T05:06:26;42.70;1.00
11091;DHT22;5599;52.210;21.046;2023-06-26T05:08:55;43.40;99.90
11091;DHT22;5599;52.210;21.046;2023-06-26T05:11:25;43.30;1.00
11091;DHT22;5599;52.210;21.046;2023-06-26T05:13:54;43.40;1.00
11091;DHT22;5599;52.210;21.046;2023-06-26T05:16:24;43.60;99.90
11091;DHT22;5599;52.210;21.046;2023-06-26T05:18:54;43.70;99.90
11091;DHT22;5599;52.210;21.046;2023-06-26T05:21:23;43.60;99.90
11091;DHT22;5599;52.210;21.046;2023-06-26T05:23:55;43.80;1.00
11091;DHT22;5599;52.210;21.046;2023-06-26T05:26:25;43.10;1.00
11091;DHT22;5599;52.210;21.046;2023-06-26T05:28:56;42.90;99.90
11091;DHT22;5599;52.210;21.046;2023-06-26T05:31:27;42.80;1.00
11091;DHT22;5599;52.210;21.046;2023-06-26T05:33:58;42.70;99.90
11091;DHT22;5599;52.210;21.046;2023-06-26T05:36:29;42.30;1.00
11091;DHT22;5599;52.210;21.046;2023-06-26T05:39:01;41.80;99.90
11091;DHT22;5599;52.210;21.046;2023-06-26T05:41:31;41.60;1.00
11091;DHT22;5599;52.210;21.046;2023-06-26T05:44:00;41.00;99.90
11091;DHT22;5599;52.210;21.046;2023-06-26T05:46:31;40.60;1.00
11091;DHT22;5599;52.210;21.046;2023-06-26T05:49:00;40.20;1.00
11091;DHT22;5599;52.210;21.046;2023-06-26T05:51:30;40.00;1.00
11091;DHT22;5599;52.210;21.046;2023-06-26T05:54:00;39.70;1.00
11091;DHT22;5599;52.210;21.046;2023-06-26T05:56:29;39.80;21.20
11091;DHT22;5599;52.210;21.046;2023-06-26T05:58:59;39.40;1.00
11091;DHT22;5599;52.210;21.046;2023-06-26T06:01:28;39.30;1.00
11091;DHT22;5599;52.210;21.046;2023-06-26T06:03:59;39.10;1.00
11091;DHT22;5599;52.210;21.046;2023-06-26T06:06:28;39.10;99.90
11091;DHT22;5599;52.210;21.046;2023-06-26T06:08:57;38.60;1.00
11091;DHT22;5599;52.210;21.046;2023-06-26T06:11:29;38.90;1.00
11091;DHT22;5599;52.210;21.046;2023-06-26T06:13:58;38.80;99.90
11091;DHT22;5599;52.210;21.046;2023-06-26T06:16:27;38.70;99.90
11091;DHT22;5599;52.210;21.046;2023-06-26T06:18:57;38.60;1.00
11091;DHT22;5599;52.210;21.046;2023-06-26T06:21:27;38.70;52.00
11091;DHT22;5599;52.210;21.046;2023-06-26T06:23:56;38.80;99.90
11091;DHT22;5599;52.210;21.046;2023-06-26T06:26:25;39.00;1.00
11091;DHT22;5599;52.210;21.046;2023-06-26T06:28:54;39.20;1.00
11091;DHT22;5599;52.210;21.046;2023-06-26T06:31:24;39.40;1.00
11091;DHT22;5599;52.210;21.046;2023-06-26T06:33:53;39.00;99.90
11091;DHT22;5599;52.210;21.046;2023-06-26T06:36:22;39.00;99.90
11091;DHT22;5599;52.210;21.046;2023-06-26T06:38:53;39.00;99.90
11091;DHT22;5599;52.210;21.046;2023-06-26T06:41:22;39.10;99.90
11091;DHT22;5599;52.210;21.046;2023-06-26T06:43:51;39.00;69.60
11091;DHT22;5599;52.210;21.046;2023-06-26T06:46:20;39.00;99.90
11091;DHT22;5599;52.210;21.046;2023-06-26T06:48:49;38.90;99.90
11091;DHT22;5599;52.210;21.046;2023-06-26T06:51:18;38.60;99.90
11091;DHT22;5599;52.210;21.046;2023-06-26T06:53:48;38.40;99.90
11091;DHT22;5599;52.210;21.046;2023-06-26T06:56:19;38.20;1.00
11091;DHT22;5599;52.210;21.046;2023-06-26T06:58:49;38.00;99.90
11091;DHT22;5599;52.210;21.046;2023-06-26T07:01:18;37.70;1.00
11091;DHT22;5599;52.210;21.046;2023-06-26T07:03:47;37.40;99.90
11091;DHT22;5599;52.210;21.046;2023-06-26T07:06:17;37.70;99.90
11091;DHT22;5599;52.210;21.046;2023-06-26T07:08:46;37.80;1.00
11091;DHT22;5599;52.210;21.046;2023-06-26T07:11:15;37.80;99.90
11091;DHT22;5599;52.210;21.046;2023-06-26T07:13:48;37.70;99.90
11091;DHT22;5599;52.210;21.046;2023-06-26T07:16:21;37.80;99.90
11091;DHT22;5599;52.210;21.046;2023-06-26T07:18:50;37.70;99.90
11091;DHT22;5599;52.210;21.046;2023-06-26T07:21:20;37.00;12.80
11091;DHT22;5599;52.210;21.046;2023-06-26T07:23:52;36.40;99.90
11091;DHT22;5599;52.210;21.046;2023-06-26T07:26:22;36.20;90.20
11091;DHT22;5599;52.210;21.046;2023-06-26T07:29:08;36.10;99.90
11091;DHT22;5599;52.210;21.046;2023-06-26T07:31:37;35.80;1.00
11091;DHT22;5599;52.210;21.046;2023-06-26T07:34:06;36.20;99.90
11091;DHT22;5599;52.210;21.046;2023-06-26T07:36:36;36.40;46.80
11091;DHT22;5599;52.210;21.046;2023-06-26T07:39:05;36.30;99.90
11091;DHT22;5599;52.210;21.046;2023-06-26T07:41:38;36.10;1.00
11091;DHT22;5599;52.210;21.046;2023-06-26T07:44:09;35.90;99.90
11091;DHT22;5599;52.210;21.046;2023-06-26T07:46:38;35.80;15.90
11091;DHT22;5599;52.210;21.046;2023-06-26T07:49:07;36.00;1.00
11091;DHT22;5599;52.210;21.046;2023-06-26T07:51:36;36.20;1.00
11091;DHT22;5599;52.210;21.046;2023-06-26T07:54:06;36.40;1.00
11091;DHT22;5599;52.210;21.046;2023-06-26T07:56:52;36.70;99.90
11091;DHT22;5599;52.210;21.046;2023-06-26T07:59:23;36.50;99.90
11091;DHT22;5599;52.210;21.046;2023-06-26T08:01:54;36.70;99.90
11091;DHT22;5599;52.210;21.046;2023-06-26T08:04:26;36.80;1.00
11091;DHT22;5599;52.210;21.046;2023-06-26T08:06:56;37.00;1.00
11091;DHT22;5599;52.210;21.046;2023-06-26T08:09:26;37.10;99.90
11091;DHT22;5599;52.210;21.046;2023-06-26T08:11:56;37.10;17.90
11091;DHT22;5599;52.210;21.046;2023-06-26T08:14:27;37.10;1.00
11091;DHT22;5599;52.210;21.046;2023-06-26T08:16:57;37.00;99.90
11091;DHT22;5599;52.210;21.046;2023-06-26T08:19:27;36.80;1.00
11091;DHT22;5599;52.210;21.046;2023-06-26T08:21:56;36.30;99.90
11091;DHT22;5599;52.210;21.046;2023-06-26T08:24:25;35.70;1.00
11091;DHT22;5599;52.210;21.046;2023-06-26T08:26:54;35.20;99.90
11091;DHT22;5599;52.210;21.046;2023-06-26T08:29:24;35.20;99.90
11091;DHT22;5599;52.210;21.046;2023-06-26T08:31:54;35.30;99.90
11091;DHT22;5599;52.210;21.046;2023-06-26T08:34:24;35.60;99.90
11091;DHT22;5599;52.210;21.046;2023-06-26T08:36:53;35.80;1.00
11091;DHT22;5599;52.210;21.046;2023-06-26T08:39:23;35.60;1.00
11091;DHT22;5599;52.210;21.046;2023-06-26T08:41:53;35.30;1.00
11091;DHT22;5599;52.210;21.046;2023-06-26T08:44:22;35.20;99.90
11091;DHT22;5599;52.210;21.046;2023-06-26T08:46:53;34.70;1.00
11091;DHT22;5599;52.210;21.046;2023-06-26T08:49:34;34.40;1.00
11091;DHT22;5599;52.210;21.046;2023-06-26T08:52:12;33.90;99.90
11091;DHT22;5599;52.210;21.046;2023-06-26T08:54:46;33.90;99.90
11091;DHT22;5599;52.210;21.046;2023-06-26T08:57:18;34.10;99.90
11091;DHT22;5599;52.210;21.046;2023-06-26T08:59:48;34.50;1.00
11091;DHT22;5599;52.210;21.046;2023-06-26T09:02:19;34.80;99.90
11091;DHT22;5599;52.210;21.046;2023-06-26T09:04:58;34.90;31.70
11091;DHT22;5599;52.210;21.046;2023-06-26T09:07:27;34.50;1.00
11091;DHT22;5599;52.210;21.046;2023-06-26T09:09:56;34.00;99.90
11091;DHT22;5599;52.210;21.046;2023-06-26T09:12:27;33.50;99.90
11091;DHT22;5599;52.210;21.046;2023-06-26T09:14:57;33.40;99.90
11091;DHT22;5599;52.210;21.046;2023-06-26T09:17:29;33.30;1.00
11091;DHT22;5599;52.210;21.046;2023-06-26T09:19:59;33.10;99.90
11091;DHT22;5599;52.210;21.046;2023-06-26T09:22:28;32.90;85.20
11091;DHT22;5599;52.210;21.046;2023-06-26T09:24:58;32.60;1.00
11091;DHT22;5599;52.210;21.046;2023-06-26T09:27:28;32.90;99.90
11091;DHT22;5599;52.210;21.046;2023-06-26T09:29:57;33.30;1.00
11091;DHT22;5599;52.210;21.046;2023-06-26T09:32:27;33.60;99.90
11091;DHT22;5599;52.210;21.046;2023-06-26T09:34:58;33.90;1.00
11091;DHT22;5599;52.210;21.046;2023-06-26T09:37:28;34.00;1.00
11091;DHT22;5599;52.210;21.046;2023-06-26T09:39:57;34.30;1.00
11091;DHT22;5599;52.210;21.046;2023-06-26T09:42:26;34.40;77.50
11091;DHT22;5599;52.210;21.046;2023-06-26T09:44:56;34.50;17.10
11091;DHT22;5599;52.210;21.046;2023-06-26T09:47:26;34.80;1.00
11091;DHT22;5599;52.210;21.046;2023-06-26T09:49:55;34.90;99.90
11091;DHT22;5599;52.210;21.046;2023-06-26T09:52:26;34.90;1.00
11091;DHT22;5599;52.210;21.046;2023-06-26T09:55:07;34.90;1.00
11091;DHT22;5599;52.210;21.046;2023-06-26T09:57:38;34.90;1.00
11091;DHT22;5599;52.210;21.046;2023-06-26T10:00:08;34.90;99.90
11091;DHT22;5599;52.210;21.046;2023-06-26T10:02:41;34.70;1.00
11091;DHT22;5599;52.210;21.046;2023-06-26T10:05:10;34.50;99.90
11091;DHT22;5599;52.210;21.046;2023-06-26T10:07:41;34.50;1.00
11091;DHT22;5599;52.210;21.046;2023-06-26T10:10:11;34.40;1.00
11091;DHT22;5599;52.210;21.046;2023-06-26T10:12:41;34.40;99.90
11091;DHT22;5599;52.210;21.046;2023-06-26T10:15:17;34.20;1.00
11091;DHT22;5599;52.210;21.046;2023-06-26T10:17:47;34.60;1.00
11091;DHT22;5599;52.210;21.046;2023-06-26T10:20:18;34.90;1.00
11091;DHT22;5599;52.210;21.046;2023-06-26T10:22:49;35.10;3.30
11091;DHT22;5599;52.210;21.046;2023-06-26T10:25:19;35.20;99.90
11091;DHT22;5599;52.210;21.046;2023-06-26T10:27:54;35.20;1.00
11091;DHT22;5599;52.210;21.046;2023-06-26T10:30:27;35.00;99.90
11091;DHT22;5599;52.210;21.046;2023-06-26T10:32:57;34.80;1.00
11091;DHT22;5599;52.210;21.046;2023-06-26T10:35:30;34.30;1.00
11091;DHT22;5599;52.210;21.046;2023-06-26T10:38:04;34.00;68.20
11091;DHT22;5599;52.210;21.046;2023-06-26T10:40:41;33.60;99.90
11091;DHT22;5599;52.210;21.046;2023-06-26T10:43:12;33.20;1.00
11091;DHT22;5599;52.210;21.046;2023-06-26T10:45:46;33.20;99.90
11091;DHT22;5599;52.210;21.046;2023-06-26T10:48:20;33.30;99.90
11091;DHT22;5599;52.210;21.046;2023-06-26T10:50:51;32.90;99.90
11091;DHT22;5599;52.210;21.046;2023-06-26T10:53:25;32.60;1.00
11091;DHT22;5599;52.210;21.046;2023-06-26T10:56:02;32.60;1.00
11091;DHT22;5599;52.210;21.046;2023-06-26T10:58:40;32.60;99.90
11091;DHT22;5599;52.210;21.046;2023-06-26T11:01:21;32.40;99.90
11091;DHT22;5599;52.210;21.046;2023-06-26T11:04:04;32.40;99.90
11091;DHT22;5599;52.210;21.046;2023-06-26T11:06:34;32.40;1.00
11091;DHT22;5599;52.210;21.046;2023-06-26T11:09:10;32.50;99.90
11091;DHT22;5599;52.210;21.046;2023-06-26T11:11:56;32.70;99.90
11091;DHT22;5599;52.210;21.046;2023-06-26T11:14:30;32.80;99.90
11091;DHT22;5599;52.210;21.046;2023-06-26T11:17:03;32.80;99.90
11091;DHT22;5599;52.210;21.046;2023-06-26T11:19:32;32.80;99.90
11091;DHT22;5599;52.210;21.046;2023-06-26T11:22:03;33.00;1.00
11091;DHT22;5599;52.210;21.046;2023-06-26T11:24:34;32.90;1.00
11091;DHT22;5599;52.210;21.046;2023-06-26T11:27:05;32.70;99.90
11091;DHT22;5599;52.210;21.046;2023-06-26T11:29:34;32.90;1.00
11091;DHT22;5599;52.210;21.046;2023-06-26T11:32:05;33.00;35.90
11091;DHT22;5599;52.210;21.046;2023-06-26T11:34:35;33.20;99.90
11091;DHT22;5599;52.210;21.046;2023-06-26T11:37:06;32.90;1.00
11091;DHT22;5599;52.210;21.046;2023-06-26T11:39:37;33.00;99.90
11091;DHT22;5599;52.210;21.046;2023-06-26T11:42:06;33.10;99.90
11091;DHT22;5599;52.210;21.046;2023-06-26T11:44:40;33.00;41.20
11091;DHT22;5599;52.210;21.046;2023-06-26T11:47:14;32.90;99.90
11091;DHT22;5599;52.210;21.046;2023-06-26T11:49:45;32.70;20.70
11091;DHT22;5599;52.210;21.046;2023-06-26T11:52:15;32.50;99.90
11091;DHT22;5599;52.210;21.046;2023-06-26T11:54:47;32.60;82.70
11091;DHT22;5599;52.210;21.046;2023-06-26T11:57:16;32.50;99.90
11091;DHT22;5599;52.210;21.046;2023-06-26T11:59:50;32.50;1.00
11091;DHT22;5599;52.210;21.046;2023-06-26T12:02:21;32.50;99.90
11091;DHT22;5599;52.210;21.046;2023-06-26T12:04:50;32.60;99.90
11091;DHT22;5599;52.210;21.046;2023-06-26T12:07:20;32.60;99.90
11091;DHT22;5599;52.210;21.046;2023-06-26T12:09:52;32.20;99.90
11091;DHT22;5599;52.210;21.046;2023-06-26T12:12:23;32.20;99.90
11091;DHT22;5599;52.210;21.046;2023-06-26T12:14:53;32.00;75.90
11091;DHT22;5599;52.210;21.046;2023-06-26T12:17:23;31.90;1.00
11091;DHT22;5599;52.210;21.046;2023-06-26T12:19:53;31.80;99.90
11091;DHT22;5599;52.210;21.046;2023-06-26T12:22:22;31.70;99.90
11091;DHT22;5599;52.210;21.046;2023-06-26T12:24:56;31.50;1.00
11091;DHT22;5599;52.210;21.046;2023-06-26T12:27:26;31.50;99.90
11091;DHT22;5599;52.210;21.046;2023-06-26T12:29:55;31.70;1.00
11091;DHT22;5599;52.210;21.046;2023-06-26T12:32:25;31.60;99.90
11091;DHT22;5599;52.210;21.046;2023-06-26T12:34:56;31.50;1.00
11091;DHT22;5599;52.210;21.046;2023-06-26T12:37:26;31.60;99.90
11091;DHT22;5599;52.210;21.046;2023-06-26T12:39:58;31.70;1.00
11091;DHT22;5599;52.210;21.046;2023-06-26T12:42:28;31.60;99.90
11091;DHT22;5599;52.210;21.046;2023-06-26T12:44:57;31.60;1.00
11091;DHT22;5599;52.210;21.046;2023-06-26T12:47:27;31.40;99.90
11091;DHT22;5599;52.210;21.046;2023-06-26T12:49:58;31.30;1.00
11091;DHT22;5599;52.210;21.046;2023-06-26T12:52:33;31.10;1.00
11091;DHT22;5599;52.210;21.046;2023-06-26T12:55:05;31.10;1.00
11091;DHT22;5599;52.210;21.046;2023-06-26T12:57:35;31.00;33.50
11091;DHT22;5599;52.210;21.046;2023-06-26T13:00:05;30.90;22.40
11091;DHT22;5599;52.210;21.046;2023-06-26T13:02:35;30.70;99.90
11091;DHT22;5599;52.210;21.046;2023-06-26T13:05:04;30.80;99.90
11091;DHT22;5599;52.210;21.046;2023-06-26T13:07:34;31.00;56.60
11091;DHT22;5599;52.210;21.046;2023-06-26T13:10:05;31.10;99.90
11091;DHT22;5599;52.210;21.046;2023-06-26T13:12:35;31.10;99.90
11091;DHT22;5599;52.210;21.046;2023-06-26T13:15:06;31.30;1.00
11091;DHT22;5599;52.210;21.046;2023-06-26T13:17:36;31.30;20.70
11091;DHT22;5599;52.210;21.046;2023-06-26T13:20:07;31.10;1.00
11091;DHT22;5599;52.210;21.046;2023-06-26T13:22:36;31.10;99.90
11091;DHT22;5599;52.210;21.046;2023-06-26T13:25:08;31.20;1.00
11091;DHT22;5599;52.210;21.046;2023-06-26T13:27:39;31.40;99.90
11091;DHT22;5599;52.210;21.046;2023-06-26T13:30:09;31.40;1.00
11091;DHT22;5599;52.210;21.046;2023-06-26T13:32:38;31.40;1.00
11091;DHT22;5599;52.210;21.046;2023-06-26T13:35:08;31.40;1.00
11091;DHT22;5599;52.210;21.046;2023-06-26T13:37:38;31.40;1.00
11091;DHT22;5599;52.210;21.046;2023-06-26T13:40:10;31.50;99.90
11091;DHT22;5599;52.210;21.046;2023-06-26T13:42:39;31.60;1.00
11091;DHT22;5599;52.210;21.046;2023-06-26T13:45:10;31.50;8.50
11091;DHT22;5599;52.210;21.046;2023-06-26T13:47:53;31.50;1.00
11091;DHT22;5599;52.210;21.046;2023-06-26T13:50:22;31.50;99.90
11091;DHT22;5599;52.210;21.046;2023-06-26T13:52:51;31.60;1.00
11091;DHT22;5599;52.210;21.046;2023-06-26T13:55:22;31.70;1.00
11091;DHT22;5599;52.210;21.046;2023-06-26T13:57:51;31.80;70.80
11091;DHT22;5599;52.210;21.046;2023-06-26T14:00:21;32.00;1.00
11091;DHT22;5599;52.210;21.046;2023-06-26T14:02:50;32.00;99.90
11091;DHT22;5599;52.210;21.046;2023-06-26T14:05:20;31.90;43.50
11091;DHT22;5599;52.210;21.046;2023-06-26T14:08:02;31.70;1.00
11091;DHT22;5599;52.210;21.046;2023-06-26T14:10:33;31.60;1.00
11091;DHT22;5599;52.210;21.046;2023-06-26T14:13:04;31.50;99.90
11091;DHT22;5599;52.210;21.046;2023-06-26T14:15:34;31.60;1.00
11091;DHT22;5599;52.210;21.046;2023-06-26T14:18:03;31.40;99.90
11091;DHT22;5599;52.210;21.046;2023-06-26T14:20:34;31.20;1.00
11091;DHT22;5599;52.210;21.046;2023-06-26T14:23:04;30.90;99.90
11091;DHT22;5599;52.210;21.046;2023-06-26T14:25:35;30.70;1.00
11091;DHT22;5599;52.210;21.046;2023-06-26T14:28:04;30.60;1.00
11091;DHT22;5599;52.210;21.046;2023-06-26T14:30:33;30.70;99.90
11091;DHT22;5599;52.210;21.046;2023-06-26T14:33:03;30.80;99.90
11091;DHT22;5599;52.210;21.046;2023-06-26T14:35:32;30.70;99.90
11091;DHT22;5599;52.210;21.046;2023-06-26T14:38:03;30.70;1.00
11091;DHT22;5599;52.210;21.046;2023-06-26T14:40:34;30.80;1.00
11091;DHT22;5599;52.210;21.046;2023-06-26T14:43:04;30.90;99.90
11091;DHT22;5599;52.210;21.046;2023-06-26T14:45:33;30.90;99.90
11091;DHT22;5599;52.210;21.046;2023-06-26T14:48:04;31.20;1.00
11091;DHT22;5599;52.210;21.046;2023-06-26T14:50:33;31.30;1.00
11091;DHT22;5599;52.210;21.046;2023-06-26T14:53:03;31.40;1.00
11091;DHT22;5599;52.210;21.046;2023-06-26T14:55:34;31.40;99.90
11091;DHT22;5599;52.210;21.046;2023-06-26T14:58:03;31.30;99.90
11091;DHT22;5599;52.210;21.046;2023-06-26T15:00:32;31.30;1.00
11091;DHT22;5599;52.210;21.046;2023-06-26T15:03:02;31.30;1.00
11091;DHT22;5599;52.210;21.046;2023-06-26T15:05:31;31.30;1.00
11091;DHT22;5599;52.210;21.046;2023-06-26T15:08:01;31.40;99.90
11091;DHT22;5599;52.210;21.046;2023-06-26T15:10:30;31.40;67.00
11091;DHT22;5599;52.210;21.046;2023-06-26T15:13:02;31.50;99.90
11091;DHT22;5599;52.210;21.046;2023-06-26T15:15:31;31.50;1.00
11091;DHT22;5599;52.210;21.046;2023-06-26T15:18:00;31.60;1.00
11091;DHT22;5599;52.210;21.046;2023-06-26T15:20:29;31.50;99.90
11091;DHT22;5599;52.210;21.046;2023-06-26T15:22:59;31.40;99.90
11091;DHT22;5599;52.210;21.046;2023-06-26T15:25:28;31.10;1.00
11091;DHT22;5599;52.210;21.046;2023-06-26T15:27:59;31.00;99.90
11091;DHT22;5599;52.210;21.046;2023-06-26T15:30:30;30.80;99.90
11091;DHT22;5599;52.210;21.046;2023-06-26T15:32:59;30.70;1.00
11091;DHT22;5599;52.210;21.046;2023-06-26T15:35:28;30.60;99.90
11091;DHT22;5599;52.210;21.046;2023-06-26T15:37:59;30.50;99.90
11091;DHT22;5599;52.210;21.046;2023-06-26T15:40:28;30.50;1.00
11091;DHT22;5599;52.210;21.046;2023-06-26T15:42:58;30.40;1.00
11091;DHT22;5599;52.210;21.046;2023-06-26T15:45:28;30.40;99.90
11091;DHT22;5599;52.210;21.046;2023-06-26T15:47:58;30.40;99.90
11091;DHT22;5599;52.210;21.046;2023-06-26T15:50:27;30.40;1.00
11091;DHT22;5599;52.210;21.046;2023-06-26T15:52:57;30.10;99.90
11091;DHT22;5599;52.210;21.046;2023-06-26T15:55:26;30.00;99.90
11091;DHT22;5599;52.210;21.046;2023-06-26T15:57:55;29.80;1.00
11091;DHT22;5599;52.210;21.046;2023-06-26T16:00:24;29.90;99.90
11091;DHT22;5599;52.210;21.046;2023-06-26T16:02:55;30.00;99.90